Time;durP1;ratioP1;P1;durP2;ratioP2;P2;SDS_P1;SDS_P2;PMS_P1;PMS_P2;Temp;Humidity;BMP_temperature;BMP_pressure;BME280_temperature;BME280_humidity;BME280_pressure;Samples;Min_cycle;Max_cycle;Signal;HPM_P1;HPM_P2
2022/08/13 00:01:22;;;;;;;81.38;47.80;;;;;;;23.84;34.94;101209.69;5096688;28;20048;-61
2022/08/13 00:03:52;;;;;;;63.13;37.97;;;;;;;23.76;34.10;101205.38;5083002;28;20051;-59
2022/08/13 00:09:10;;;;;;;450.67;274.55;;;;;;;23.83;34.64;101199.06;5088756;28;20105;-60
2022/08/13 00:14:32;;;;;;;14.52;4.68;;;;;;;23.56;34.01;101207.56;5088128;28;20044;-62
2022/08/13 00:17:00;;;;;;;13.13;3.22;;;;;;;23.42;33.92;101206.91;5092330;28;20497;-60
2022/08/13 00:19:29;;;;;;;12.05;4.05;;;;;;;23.49;34.73;101206.81;5096012;28;20048;-61
2022/08/13 00:21:58;;;;;;;53.25;5.32;;;;;;;23.51;34.90;101204.72;5095627;28;20117;-60
2022/08/13 00:24:25;;;;;;;44.90;18.73;;;;;;;23.49;34.24;101204.13;5049701;28;20557;-60
2022/08/13 00:26:52;;;;;;;20.92;9.50;;;;;;;23.51;34.65;101210.94;5092266;28;20044;-60
2022/08/13 00:29:19;;;;;;;12.50;5.95;;;;;;;23.55;34.00;101209.41;5084229;28;20489;-60
2022/08/13 00:31:48;;;;;;;26.02;11.70;;;;;;;23.51;34.50;101210.13;5079385;28;20065;-61
2022/08/13 00:34:14;;;;;;;27.65;13.30;;;;;;;23.47;34.71;101207.03;5081775;28;20032;-60
2022/08/13 00:36:41;;;;;;;22.92;7.93;;;;;;;23.47;34.66;101207.03;5087910;28;20485;-61
2022/08/13 00:39:09;;;;;;;54.70;16.02;;;;;;;23.42;34.92;101201.50;5075702;28;20094;-60
2022/08/13 00:41:40;;;;;;;52.88;28.27;;;;;;;23.60;34.18;101203.34;5077018;28;20049;-62
2022/08/13 00:44:09;;;;;;;41.78;22.02;;;;;;;23.54;35.10;101199.66;5076399;28;20130;-59
2022/08/13 00:46:38;;;;;;;45.97;20.08;;;;;;;23.57;34.83;101192.94;5094975;28;20040;-59
2022/08/13 00:49:07;;;;;;;29.52;11.93;;;;;;;23.61;34.50;101193.31;5095569;28;20062;-60
2022/08/13 00:51:36;;;;;;;171.57;91.28;;;;;;;23.63;35.86;101199.31;5089242;28;20460;-60
2022/08/13 00:54:06;;;;;;;26.52;11.93;;;;;;;23.64;34.65;101187.44;5083929;28;20040;-61
2022/08/13 00:56:34;;;;;;;20.05;9.57;;;;;;;23.52;35.19;101182.81;5087570;28;20036;-59
2022/08/13 00:59:11;;;;;;;38.65;22.13;;;;;;;23.48;35.37;101184.31;5084642;28;20493;-61
2022/08/13 01:01:42;;;;;;;17.35;5.85;;;;;;;23.41;34.72;101186.28;5107452;28;20138;-61
2022/08/13 01:04:09;;;;;;;19.75;8.95;;;;;;;23.34;34.97;101189.09;5084673;28;20040;-61
2022/08/13 01:06:38;;;;;;;10.80;3.30;;;;;;;23.29;35.53;101191.66;5094267;28;20106;-61
2022/08/13 01:09:08;;;;;;;12.20;3.25;;;;;;;23.34;35.81;101189.09;5093504;28;20054;-58
2022/08/13 01:11:38;;;;;;;33.57;14.33;;;;;;;23.41;35.80;101191.69;5091936;28;20097;-61
2022/08/13 01:14:08;;;;;;;18.10;7.55;;;;;;;23.28;35.55;101189.19;5085550;28;20044;-60
2022/08/13 01:16:36;;;;;;;25.80;11.27;;;;;;;23.49;35.13;101193.28;5110725;28;20055;-59
2022/08/13 01:19:06;;;;;;;13.25;4.78;;;;;;;23.46;35.56;101186.44;5092861;28;20072;-59
2022/08/13 01:21:39;;;;;;;74.13;34.53;;;;;;;23.48;35.66;101191.63;5104985;28;20052;-60
2022/08/13 01:24:09;;;;;;;80.93;41.72;;;;;;;23.49;35.50;101194.09;5022351;28;20051;-60
2022/08/13 01:26:37;;;;;;;76.40;35.65;;;;;;;23.43;35.97;101194.19;5110892;28;20101;-59
2022/08/13 01:29:05;;;;;;;39.63;20.92;;;;;;;23.29;35.61;101188.97;5100372;28;20040;-60
2022/08/13 01:31:32;;;;;;;116.38;60.72;;;;;;;23.43;35.90;101194.19;5104548;28;20377;-60
2022/08/13 01:34:01;;;;;;;49.53;28.67;;;;;;;23.55;35.45;101193.19;5106916;28;20044;-61
2022/08/13 01:36:28;;;;;;;115.60;54.92;;;;;;;23.50;35.29;101192.22;5098331;28;20089;-61
2022/08/13 01:38:57;;;;;;;93.05;44.15;;;;;;;23.41;35.84;101191.69;5109825;28;20044;-61
2022/08/13 01:41:26;;;;;;;140.35;57.47;;;;;;;23.34;35.81;101191.81;5106305;28;20044;-60
2022/08/13 01:43:58;;;;;;;165.73;63.70;;;;;;;23.21;36.89;101183.84;5097672;28;20044;-59
2022/08/13 01:46:25;;;;;;;49.22;18.80;;;;;;;22.97;37.02;101183.66;5095652;28;20478;-61
2022/08/13 01:51:38;;;;;;;33.17;13.95;;;;;;;22.96;36.47;101186.63;5094178;28;20052;-60
2022/08/13 01:54:05;;;;;;;134.27;52.33;;;;;;;22.86;37.07;101187.13;5109367;28;20101;-62
2022/08/13 01:56:32;;;;;;;23.25;9.52;;;;;;;22.79;37.10;101178.25;5098099;28;20051;-61
2022/08/13 01:59:02;;;;;;;39.67;22.80;;;;;;;22.78;37.90;101184.75;5109120;28;20123;-62
2022/08/13 02:01:30;;;;;;;42.22;18.73;;;;;;;22.78;37.63;101185.56;5094579;28;20558;-62
2022/08/13 02:03:58;;;;;;;44.60;19.33;;;;;;;22.77;37.59;101183.88;5107651;28;20047;-63
2022/08/13 02:06:28;;;;;;;8.02;3.20;;;;;;;22.69;37.49;101186.09;5097650;28;20044;-62
2022/08/13 02:09:02;;;;;;;11.30;3.50;;;;;;;22.59;38.01;101190.13;5109543;28;20072;-61
2022/08/13 02:11:32;;;;;;;14.25;4.95;;;;;;;22.56;38.13;101189.75;5103974;28;20051;-60
2022/08/13 02:14:04;;;;;;;14.82;4.28;;;;;;;22.48;38.79;101187.31;5102918;28;20051;-59
2022/08/13 02:16:31;;;;;;;;;;;;;;;22.37;39.02;101188.88;5114420;28;20039;-61
2022/08/13 02:19:00;;;;;;;10.77;3.97;;;;;;;22.30;39.13;101182.69;5114364;28;19923;-58
2022/08/13 02:21:31;;;;;;;8.75;3.05;;;;;;;22.24;39.11;101193.31;5114958;28;20522;-58
2022/08/13 02:23:59;;;;;;;10.60;3.38;;;;;;;22.21;39.47;101195.63;5077163;28;20054;-58
2022/08/13 02:26:28;;;;;;;8.30;3.10;;;;;;;22.11;39.51;101192.59;5114664;28;20047;-58
2022/08/13 02:28:57;;;;;;;12.07;3.40;;;;;;;22.06;39.92;101193.25;5114842;28;20055;-58
2022/08/13 02:31:26;;;;;;;12.20;3.70;;;;;;;22.03;39.86;101199.09;5114775;28;20522;-57
2022/08/13 02:33:53;;;;;;;12.38;3.40;;;;;;;22.02;40.23;101205.53;5114054;28;20042;-57
2022/08/13 02:36:22;;;;;;;12.95;3.40;;;;;;;22.00;39.90;101192.25;5114409;28;20116;-57
2022/08/13 02:38:55;;;;;;;13.45;3.40;;;;;;;21.96;40.00;101198.31;5114803;28;20047;-57
2022/08/13 02:41:54;;;;;;;11.95;3.40;;;;;;;21.92;39.97;101202.47;5114720;28;20053;-57
2022/08/13 02:44:12;;;;;;;8.93;3.70;;;;;;;21.91;39.97;101200.84;5114573;28;20043;-57
2022/08/13 02:46:42;;;;;;;7.82;3.17;;;;;;;21.82;40.17;101202.97;5114594;27;20044;-57
2022/08/13 02:49:09;;;;;;;11.20;3.47;;;;;;;21.79;40.67;101204.25;5114416;28;20047;-57
2022/08/13 02:51:38;;;;;;;8.38;3.10;;;;;;;21.83;40.06;101201.94;5100591;28;20052;-57
2022/08/13 02:54:06;;;;;;;10.40;3.33;;;;;;;21.81;40.30;101201.31;5093852;28;20417;-57
2022/08/13 02:56:34;;;;;;;9.38;3.25;;;;;;;21.80;39.77;101200.50;5093816;28;20481;-57
2022/08/13 02:59:01;;;;;;;7.25;3.20;;;;;;;21.82;39.44;101197.56;5093715;28;20052;-57
2022/08/13 03:01:28;;;;;;;8.75;3.00;;;;;;;21.76;39.73;101201.16;5093904;28;20044;-58
2022/08/13 03:03:55;;;;;;;12.85;3.00;;;;;;;21.72;40.69;101206.16;5093226;28;20048;-57
2022/08/13 03:06:23;;;;;;;8.35;3.00;;;;;;;21.65;41.07;101208.06;5093561;28;20436;-58
2022/08/13 03:08:52;;;;;;;8.63;3.17;;;;;;;21.65;41.49;101208.06;5093633;28;20073;-57
2022/08/13 03:11:20;;;;;;;9.73;3.28;;;;;;;21.59;41.81;101211.63;5093776;28;20055;-57
2022/08/13 03:13:53;;;;;;;8.85;3.20;;;;;;;21.46;41.63;101207.94;5093535;28;20568;-57
2022/08/13 03:16:24;;;;;;;12.38;3.00;;;;;;;21.40;42.72;101207.94;5093431;28;20044;-57
2022/08/13 03:18:53;;;;;;;11.15;3.25;;;;;;;21.28;43.00;101207.78;5093600;28;20040;-57
2022/08/13 03:21:25;;;;;;;13.38;3.40;;;;;;;21.17;43.13;101206.56;5093660;28;20562;-57
2022/08/13 03:23:52;;;;;;;8.70;3.50;;;;;;;21.11;43.16;101212.00;5055348;28;20043;-57
2022/08/13 03:26:20;;;;;;;9.00;3.15;;;;;;;21.00;43.46;101205.41;5093643;28;20036;-57
2022/08/13 03:28:50;;;;;;;8.10;3.05;;;;;;;20.93;43.99;101207.28;5093378;28;20055;-57
2022/08/13 03:31:18;;;;;;;12.97;3.50;;;;;;;20.87;44.06;101215.19;5092864;28;20584;-57
2022/08/13 03:33:46;;;;;;;10.15;3.08;;;;;;;20.83;44.45;101210.41;5091745;28;20071;-57
2022/08/13 03:36:13;;;;;;;8.35;3.50;;;;;;;20.77;44.26;101205.88;5093347;28;20131;-57
2022/08/13 03:38:42;;;;;;;9.50;3.17;;;;;;;20.69;44.79;101215.81;5093817;28;20052;-57
2022/08/13 03:41:14;;;;;;;10.68;3.40;;;;;;;20.64;44.78;101212.91;5093446;28;20135;-57
2022/08/13 03:43:43;;;;;;;8.98;3.25;;;;;;;20.65;45.33;101214.59;5093404;28;20071;-57
2022/08/13 03:46:12;;;;;;;9.32;3.53;;;;;;;20.60;45.05;101210.84;5092913;28;20093;-58
2022/08/13 03:48:39;;;;;;;9.13;3.20;;;;;;;20.61;44.55;101220.59;5093343;28;20056;-57
2022/08/13 03:51:07;;;;;;;11.60;3.38;;;;;;;20.63;45.10;101213.97;5093307;28;20048;-58
2022/08/13 03:53:35;;;;;;;10.88;3.30;;;;;;;20.55;45.48;101216.84;5093504;28;20040;-56
2022/08/13 03:56:04;;;;;;;8.43;3.55;;;;;;;20.42;45.72;101209.59;5093149;28;20064;-58
2022/08/13 03:58:32;;;;;;;10.05;3.28;;;;;;;20.42;45.61;101208.78;5093297;28;20044;-57
2022/08/13 04:01:01;;;;;;;8.85;3.50;;;;;;;20.37;45.96;101212.09;5092846;28;20070;-57
2022/08/13 04:03:32;;;;;;;8.50;3.35;;;;;;;20.32;46.05;101214.59;5092437;28;20451;-57
2022/08/13 04:06:00;;;;;;;9.70;3.35;;;;;;;20.32;46.30;101212.72;5093261;28;20374;-58
2022/08/13 04:08:30;;;;;;;9.77;3.30;;;;;;;20.20;46.60;101210.84;5092834;28;20524;-58
2022/08/13 04:10:57;;;;;;;15.65;3.45;;;;;;;20.13;46.50;101214.34;5093257;28;20489;-59
2022/08/13 04:13:26;;;;;;;13.55;3.50;;;;;;;20.10;46.86;101213.94;5091881;28;20044;-59
2022/08/13 04:15:52;;;;;;;7.82;3.53;;;;;;;20.09;46.97;101220.38;5108998;28;20036;-60
2022/08/13 04:18:19;;;;;;;12.60;3.42;;;;;;;20.04;46.92;101217.47;5104231;28;20109;-59
2022/08/13 04:20:50;;;;;;;10.27;3.72;;;;;;;20.09;46.98;101221.19;5092512;28;20527;-59
2022/08/13 04:23:19;;;;;;;14.18;3.50;;;;;;;20.07;47.15;101217.88;5050916;28;20477;-59
2022/08/13 04:25:48;;;;;;;8.00;3.75;;;;;;;20.02;47.40;101216.84;5072680;28;20044;-59
2022/08/13 04:28:16;;;;;;;11.65;3.60;;;;;;;20.01;47.34;101221.41;5072731;28;20836;-57
2022/08/13 04:30:43;;;;;;;12.55;4.05;;;;;;;20.02;47.31;101214.16;5073061;28;20076;-59
2022/08/13 04:33:11;;;;;;;11.82;3.70;;;;;;;20.05;46.75;101216.44;5072249;28;20489;-59
2022/08/13 04:35:39;;;;;;;11.05;3.85;;;;;;;20.10;45.90;101213.94;5089228;28;20055;-58
2022/08/13 04:38:06;;;;;;;9.10;3.53;;;;;;;20.06;46.03;101210.81;5091396;28;20370;-59
2022/08/13 04:40:35;;;;;;;11.50;3.60;;;;;;;20.03;45.91;101216.63;5094658;28;20531;-58
2022/08/13 04:43:05;;;;;;;12.93;3.80;;;;;;;20.14;45.92;101220.59;5093009;28;20093;-58
2022/08/13 04:45:34;;;;;;;8.65;3.70;;;;;;;20.20;45.51;101227.84;5096289;28;20044;-58
2022/08/13 04:48:04;;;;;;;8.07;3.67;;;;;;;20.26;45.54;101218.09;5094953;28;20045;-58
2022/08/13 04:50:33;;;;;;;11.13;3.70;;;;;;;20.24;45.38;101220.16;5076094;28;20048;-57
2022/08/13 04:53:02;;;;;;;10.88;4.00;;;;;;;20.27;45.49;101223.28;5077506;28;20477;-58
2022/08/13 04:55:29;;;;;;;8.40;3.70;;;;;;;20.31;44.95;101221.81;5094626;28;20036;-58
2022/08/13 04:57:56;;;;;;;9.65;4.00;;;;;;;20.33;45.86;101217.06;5095304;28;20044;-58
2022/08/13 05:00:25;;;;;;;10.88;4.05;;;;;;;20.32;46.12;101219.97;5090095;28;20047;-57
2022/08/13 05:02:53;;;;;;;10.90;4.05;;;;;;;20.29;46.40;101221.22;5094358;28;20048;-58
2022/08/13 05:05:24;;;;;;;13.75;4.13;;;;;;;20.24;46.98;101223.69;5095354;28;20036;-58
2022/08/13 05:07:52;;;;;;;10.35;3.67;;;;;;;20.28;47.33;101226.78;5094170;28;20551;-59
2022/08/13 05:10:20;;;;;;;17.30;3.88;;;;;;;20.25;47.56;101230.75;5093636;28;20515;-58
2022/08/13 05:12:47;;;;;;;9.15;3.70;;;;;;;20.27;47.41;101223.28;5094138;28;20040;-59
2022/08/13 05:15:14;;;;;;;14.82;3.78;;;;;;;20.22;46.50;101231.16;5094240;28;20057;-58
2022/08/13 05:17:41;;;;;;;9.60;3.67;;;;;;;20.26;47.01;101234.25;5095829;28;20052;-58
2022/08/13 05:20:13;;;;;;;12.25;3.78;;;;;;;20.25;47.77;101240.69;5095537;28;20036;-58
2022/08/13 05:22:40;;;;;;;16.35;3.78;;;;;;;20.23;48.01;101234.66;5057348;28;20113;-58
2022/08/13 05:25:08;;;;;;;8.27;3.80;;;;;;;20.27;47.74;101239.44;5095865;28;20477;-58
2022/08/13 05:27:35;;;;;;;8.23;3.70;;;;;;;20.26;47.90;101236.94;5093153;28;20432;-59
2022/08/13 05:30:03;;;;;;;13.02;4.32;;;;;;;20.26;47.12;101242.34;5095733;28;20044;-59
2022/08/13 05:32:29;;;;;;;11.45;4.32;;;;;;;20.31;46.75;101247.94;5092371;28;20063;-59
2022/08/13 05:35:11;;;;;;;9.68;3.92;;;;;;;20.37;46.88;101244.41;5094856;28;20044;-59
2022/08/13 05:37:38;;;;;;;13.02;4.00;;;;;;;20.45;46.22;101241.53;5091686;28;20052;-59
2022/08/13 05:40:05;;;;;;;10.95;4.13;;;;;;;20.46;46.35;101242.34;5093292;28;20074;-59
2022/08/13 05:42:35;;;;;;;18.42;3.90;;;;;;;20.49;46.30;101250.84;5083278;28;20071;-59
2022/08/13 05:45:02;;;;;;;7.63;3.50;;;;;;;20.53;46.17;101249.38;5082270;28;20036;-59
2022/08/13 05:47:29;;;;;;;10.27;3.88;;;;;;;20.55;46.29;101238.41;5093542;28;20139;-59
2022/08/13 05:49:56;;;;;;;9.93;4.05;;;;;;;20.61;46.35;101250.25;5093757;28;20083;-59
2022/08/13 05:52:25;;;;;;;13.63;3.80;;;;;;;20.63;46.18;101245.47;5090384;28;20075;-59
2022/08/13 05:54:54;;;;;;;8.85;3.80;;;;;;;20.67;45.93;101247.56;5094074;28;20097;-59
2022/08/13 05:57:22;;;;;;;9.32;3.95;;;;;;;20.74;45.96;101250.25;5085762;28;20486;-59
2022/08/13 06:05:37;;;;;;;11.35;4.32;;;;;;;20.85;45.06;101244.22;5099691;28;20050;-59
2022/08/13 06:08:05;;;;;;;12.85;4.60;;;;;;;20.95;45.70;101245.66;5102242;28;20040;-59
2022/08/13 06:10:33;;;;;;;14.10;4.07;;;;;;;21.00;45.21;101246.69;5109554;28;20044;-59
2022/08/13 06:13:01;;;;;;;12.45;4.43;;;;;;;21.04;45.57;101242.50;5111302;28;20558;-59
2022/08/13 06:15:28;;;;;;;8.13;3.80;;;;;;;21.08;45.27;101242.91;5103830;28;20071;-59
2022/08/13 06:17:55;;;;;;;7.75;3.92;;;;;;;21.15;44.75;101245.59;5110560;28;20043;-59
2022/08/13 06:20:21;;;;;;;11.73;4.00;;;;;;;21.12;44.49;101246.00;5108087;28;20048;-59
2022/08/13 06:22:51;;;;;;;16.40;3.90;;;;;;;21.14;43.70;101244.78;5086225;28;20040;-59
2022/08/13 06:25:21;;;;;;;10.00;3.90;;;;;;;21.33;45.03;101248.44;5101302;28;20035;-59
2022/08/13 06:27:48;;;;;;;11.75;3.83;;;;;;;21.38;44.54;101250.50;5106135;28;20446;-59
2022/08/13 06:30:18;;;;;;;12.15;5.05;;;;;;;21.39;43.66;101255.72;5109068;28;20089;-59
2022/08/13 06:32:44;;;;;;;14.55;4.07;;;;;;;21.44;43.20;101253.16;5110488;28;20046;-59
2022/08/13 06:35:11;;;;;;;9.68;3.72;;;;;;;21.49;42.94;101251.75;5110656;28;20517;-59
2022/08/13 06:37:41;;;;;;;40.25;4.40;;;;;;;21.61;42.48;101260.81;5110492;28;20059;-58
2022/08/13 06:40:10;;;;;;;12.32;3.90;;;;;;;21.75;42.58;101248.91;5110182;28;20044;-57
2022/08/13 06:42:39;;;;;;;8.35;3.45;;;;;;;22.07;41.72;101257.03;5110172;28;20065;-59
2022/08/13 06:45:06;;;;;;;10.75;3.60;;;;;;;22.24;40.54;101260.03;5110014;28;20040;-58
2022/08/13 06:47:33;;;;;;;9.80;3.63;;;;;;;22.19;40.64;101249.06;5110372;28;20505;-59
2022/08/13 06:50:02;;;;;;;10.90;3.25;;;;;;;22.26;41.09;101254.41;5110336;28;20052;-59
2022/08/13 06:52:29;;;;;;;7.90;3.47;;;;;;;22.24;40.84;101254.63;5109944;28;20040;-58
2022/08/13 06:54:57;;;;;;;12.63;3.83;;;;;;;22.39;41.38;101262.44;5109864;28;20054;-58
2022/08/13 06:57:24;;;;;;;11.52;6.55;;;;;;;22.47;41.46;101258.66;5110314;28;20047;-56
2022/08/13 06:59:57;;;;;;;27.77;14.73;;;;;;;22.57;40.13;101254.38;5109835;28;20036;-57
2022/08/13 07:02:24;;;;;;;13.38;5.07;;;;;;;22.62;40.59;101261.84;5109657;28;20067;-58
2022/08/13 07:04:54;;;;;;;17.23;4.53;;;;;;;22.64;40.82;101262.44;5109026;28;20485;-59
2022/08/13 07:07:21;;;;;;;12.05;3.47;;;;;;;22.68;39.95;101260.13;5110110;28;20134;-58
2022/08/13 07:09:49;;;;;;;8.30;3.70;;;;;;;22.74;39.23;101262.78;5101912;28;20052;-59
2022/08/13 07:12:16;;;;;;;10.73;3.42;;;;;;;22.84;38.97;101264.97;5106875;28;20040;-59
2022/08/13 07:14:44;;;;;;;11.63;3.38;;;;;;;22.96;39.25;101260.47;5095495;28;20042;-55
2022/08/13 07:17:11;;;;;;;10.95;3.33;;;;;;;23.19;39.04;101265.28;5096094;28;20440;-59
2022/08/13 07:19:37;;;;;;;11.57;3.22;;;;;;;23.35;38.82;101263.00;5096162;28;20056;-61
2022/08/13 07:22:05;;;;;;;9.40;3.20;;;;;;;23.47;38.62;101260.38;5093290;28;20493;-60
2022/08/13 07:24:32;;;;;;;10.10;3.53;;;;;;;23.67;37.89;101265.53;5063903;28;20040;-62
2022/08/13 07:27:07;;;;;;;10.70;3.33;;;;;;;23.73;37.92;101267.31;5096194;28;20047;-60
2022/08/13 07:29:36;;;;;;;11.48;3.42;;;;;;;23.77;38.71;101266.63;5095965;28;20055;-61
2022/08/13 07:32:03;;;;;;;12.80;3.10;;;;;;;23.80;39.17;101265.38;5095371;28;20071;-60
2022/08/13 07:34:32;;;;;;;9.85;3.25;;;;;;;23.82;38.38;101267.88;5095633;28;20078;-58
2022/08/13 07:36:59;;;;;;;12.90;3.38;;;;;;;23.94;38.04;101266.03;5095873;28;20519;-59
2022/08/13 07:39:26;;;;;;;8.27;3.20;;;;;;;24.00;37.70;101262.38;5095396;28;20075;-55
2022/08/13 07:41:54;;;;;;;14.65;3.38;;;;;;;24.03;37.06;101269.22;5095662;28;20051;-56
2022/08/13 07:44:23;;;;;;;7.85;3.40;;;;;;;24.12;38.34;101265.97;5095754;28;20048;-56
2022/08/13 07:46:51;;;;;;;9.65;3.40;;;;;;;24.21;37.56;101271.84;5095523;28;20048;-54
2022/08/13 07:49:20;;;;;;;10.13;3.17;;;;;;;24.20;36.87;101264.78;5095024;28;20434;-54
2022/08/13 07:51:48;;;;;;;7.97;3.10;;;;;;;24.21;36.58;101273.75;5095349;28;20040;-54
2022/08/13 07:54:15;;;;;;;9.38;3.20;;;;;;;24.15;37.17;101267.38;5095578;28;20044;-54
2022/08/13 07:56:47;;;;;;;11.00;3.10;;;;;;;24.18;36.64;101258.78;5079948;28;20056;-53
2022/08/13 07:59:18;;;;;;;9.55;2.80;;;;;;;24.21;36.43;101268.31;5075248;28;20502;-54
2022/08/13 08:01:50;;;;;;;7.63;2.95;;;;;;;24.21;36.59;101269.13;5089463;28;20052;-53
2022/08/13 08:04:20;;;;;;;8.57;3.22;;;;;;;24.22;36.40;101270.00;5073987;28;20087;-54
2022/08/13 08:06:52;;;;;;;14.45;3.10;;;;;;;24.25;36.29;101266.78;5059097;28;20496;-54
2022/08/13 08:09:23;;;;;;;15.48;4.32;;;;;;;24.34;36.02;101262.72;5089255;28;20079;-58
2022/08/13 08:14:38;;;;;;;7.88;3.60;;;;;;;24.56;36.07;101268.44;5070810;28;20094;-50
2022/08/13 08:17:08;;;;;;;7.00;3.15;;;;;;;24.72;36.20;101269.59;5081207;28;20043;-51
2022/08/13 08:19:38;;;;;;;59.42;33.10;;;;;;;24.71;36.14;101271.50;5082338;28;20206;-54
2022/08/13 08:22:06;;;;;;;14.93;7.93;;;;;;;24.86;36.44;101270.19;5087872;28;20044;-54
2022/08/13 08:24:35;;;;;;;20.35;5.65;;;;;;;25.10;35.05;101254.72;5055007;28;20043;-53
2022/08/13 08:27:05;;;;;;;16.27;6.70;;;;;;;25.14;35.27;101263.19;5089160;28;20054;-60
2022/08/13 08:29:33;;;;;;;12.65;4.45;;;;;;;25.39;34.61;101269.19;5094932;28;20071;-57
2022/08/13 08:32:07;;;;;;;9.35;2.90;;;;;;;25.49;34.90;101260.44;5067876;28;20043;-57
2022/08/13 08:34:37;;;;;;;13.82;3.72;;;;;;;25.50;34.10;101263.97;5102794;28;20040;-58
2022/08/13 08:37:05;;;;;;;19.38;6.00;;;;;;;25.72;33.91;101258.69;5083036;28;20040;-58
2022/08/13 08:42:35;;;;;;;12.70;3.78;;;;;;;25.78;33.96;101266.72;5087801;28;20978;-57
2022/08/13 08:45:08;;;;;;;11.75;3.10;;;;;;;25.86;33.63;101260.88;5099482;28;20127;-57
2022/08/13 08:47:36;;;;;;;10.52;2.78;;;;;;;26.01;33.00;101265.81;5094092;28;20560;-57
2022/08/13 08:50:05;;;;;;;6.65;2.30;;;;;;;26.25;31.66;101260.25;5095691;28;20039;-58
2022/08/13 08:55:21;;;;;;;10.27;2.85;;;;;;;26.57;31.63;101257.75;5100101;27;20063;-57
2022/08/13 08:57:50;;;;;;;8.75;3.10;;;;;;;26.52;31.07;101263.09;5107460;28;20044;-57
2022/08/13 09:00:20;;;;;;;10.90;2.55;;;;;;;26.81;30.25;101261.16;5094400;28;20047;-57
2022/08/13 09:02:49;;;;;;;10.98;2.30;;;;;;;26.85;30.96;101257.91;5102737;28;20393;-57
2022/08/13 09:05:20;;;;;;;7.97;2.22;;;;;;;27.04;30.15;101253.81;5102153;28;20051;-57
2022/08/13 09:07:47;;;;;;;9.25;2.50;;;;;;;27.09;29.67;101245.72;5097985;28;20055;-57
2022/08/13 09:10:16;;;;;;;25.20;18.35;;;;;;;27.21;30.33;101248.31;5088306;27;20094;-58
2022/08/13 09:12:44;;;;;;;6.57;2.53;;;;;;;27.43;29.67;101244.78;5089069;28;20044;-58
2022/08/13 09:15:13;;;;;;;5.75;2.40;;;;;;;27.54;29.94;101244.66;5098494;28;20039;-58
2022/08/13 09:17:41;;;;;;;5.15;2.30;;;;;;;27.58;29.94;101242.25;5109808;28;20061;-59
2022/08/13 09:20:12;;;;;;;7.88;2.63;;;;;;;27.72;28.95;101245.38;5070583;28;20497;-58
2022/08/13 09:22:41;;;;;;;12.13;2.45;;;;;;;27.72;28.44;101234.47;5079803;28;20040;-56
2022/08/13 09:25:10;;;;;;;7.63;2.53;;;;;;;27.72;28.90;101234.47;5057048;28;20051;-57
2022/08/13 09:27:38;;;;;;;7.72;2.42;;;;;;;27.63;30.14;101234.13;5102986;28;20397;-57
2022/08/13 09:30:05;;;;;;;11.35;3.33;;;;;;;27.67;29.47;101229.81;5084184;28;20041;-57
2022/08/13 09:32:32;;;;;;;8.73;2.63;;;;;;;27.82;29.38;101234.59;5093415;28;20070;-57
2022/08/13 09:35:00;;;;;;;6.00;2.47;;;;;;;27.92;28.69;101232.00;5096198;28;20035;-56
2022/08/13 09:37:29;;;;;;;8.20;2.40;;;;;;;28.12;28.35;101225.06;5104411;28;20043;-57
2022/08/13 09:40:04;;;;;;;9.60;2.38;;;;;;;28.32;28.48;101227.97;5085883;28;20070;-57
2022/08/13 09:42:37;;;;;;;125.97;67.95;;;;;;;28.60;28.31;101231.47;5096974;28;20038;-57
2022/08/13 09:45:06;;;;;;;8.80;2.80;;;;;;;28.48;27.70;101226.16;5096368;28;20422;-57
2022/08/13 09:47:32;;;;;;;9.95;2.50;;;;;;;28.18;28.66;101228.66;5096046;28;20089;-57
2022/08/13 09:49:59;;;;;;;6.85;2.50;;;;;;;27.85;29.00;101222.34;5089105;28;20051;-57
2022/08/13 09:52:26;;;;;;;11.65;2.70;;;;;;;27.85;28.83;101220.47;5086125;28;20053;-57
2022/08/13 09:54:54;;;;;;;6.65;2.80;;;;;;;28.17;28.38;101227.84;5079665;28;20044;-57
2022/08/13 09:57:20;;;;;;;6.70;2.58;;;;;;;28.64;28.45;101224.38;5074002;28;20056;-57
2022/08/13 09:59:48;;;;;;;7.55;2.90;;;;;;;28.74;27.55;101220.88;5077792;28;20045;-58
2022/08/13 10:02:18;;;;;;;6.32;2.50;;;;;;;29.00;27.15;101218.31;5095110;28;20044;-60
2022/08/13 10:04:45;;;;;;;6.15;2.45;;;;;;;29.12;26.57;101215.34;5088583;28;20032;-59
2022/08/13 10:07:12;;;;;;;14.60;5.13;;;;;;;29.12;26.65;101202.50;5084667;28;20048;-60
2022/08/13 10:09:39;;;;;;;12.73;3.08;;;;;;;29.13;27.53;101206.88;5093927;28;20053;-62
2022/08/13 10:12:08;;;;;;;16.67;3.40;;;;;;;29.36;26.67;101199.34;5100754;28;20044;-62
2022/08/13 10:14:35;;;;;;;7.22;3.13;;;;;;;29.58;26.67;101194.47;5099363;28;20370;-61
2022/08/13 10:17:04;;;;;;;9.68;3.50;;;;;;;29.79;26.78;101194.53;5103673;28;20381;-63
2022/08/13 10:19:31;;;;;;;32.67;4.35;;;;;;;29.99;27.17;101196.44;5087798;28;20051;-60
2022/08/13 10:21:58;;;;;;;15.18;4.57;;;;;;;30.09;26.25;101195.63;5095889;28;20113;-62
2022/08/13 10:24:25;;;;;;;8.20;3.40;;;;;;;30.18;26.51;101191.22;4991641;28;20040;-62
2022/08/13 10:26:52;;;;;;;8.85;3.72;;;;;;;30.18;25.07;101183.88;5097691;28;20416;-62
2022/08/13 10:29:19;;;;;;;9.02;2.90;;;;;;;29.75;25.77;101180.59;5099275;28;20036;-62
2022/08/13 10:31:46;;;;;;;8.30;2.78;;;;;;;29.48;26.27;101175.31;5088977;28;20047;-62
2022/08/13 10:34:21;;;;;;;6.32;2.60;;;;;;;29.36;26.47;101181.06;5094523;28;20062;-58
2022/08/13 10:36:49;;;;;;;9.50;2.63;;;;;;;29.41;26.65;101182.97;5099250;28;20382;-58
2022/08/13 10:39:16;;;;;;;10.25;2.65;;;;;;;29.59;27.39;101178.91;5083986;28;20451;-57
2022/08/13 10:41:43;;;;;;;10.00;2.90;;;;;;;29.72;26.41;101163.88;5089695;28;20071;-57
2022/08/13 10:44:11;;;;;;;9.77;2.50;;;;;;;29.61;26.44;101169.31;5091742;28;20051;-56
2022/08/13 10:46:37;;;;;;;6.05;2.78;;;;;;;29.75;25.84;101175.13;5106905;28;20127;-57
2022/08/13 10:49:04;;;;;;;7.05;2.78;;;;;;;29.95;26.20;101176.22;5104290;28;20043;-52
2022/08/13 10:51:31;;;;;;;5.60;2.38;;;;;;;30.03;25.54;101168.28;5102183;28;20097;-56
2022/08/13 10:53:58;;;;;;;7.07;2.55;;;;;;;30.09;26.11;101165.53;5095972;28;20089;-63
2022/08/13 10:56:27;;;;;;;7.63;2.80;;;;;;;30.02;25.19;101154.88;5112332;28;20388;-58
2022/08/13 10:58:56;;;;;;;7.75;2.60;;;;;;;29.78;25.63;101158.19;5102508;28;20035;-55
2022/08/13 11:01:24;;;;;;;19.35;8.70;;;;;;;29.86;26.99;101154.06;5102739;28;20139;-56
2022/08/13 11:03:55;;;;;;;11.57;5.03;;;;;;;29.99;25.96;101153.50;5110426;28;20047;-58
2022/08/13 11:06:26;;;;;;;10.80;4.40;;;;;;;29.90;26.09;101149.69;5099297;28;20405;-57
2022/08/13 11:08:54;;;;;;;10.25;3.95;;;;;;;29.92;27.26;101154.88;5108606;28;20382;-55
2022/08/13 11:11:22;;;;;;;8.82;3.70;;;;;;;29.81;28.63;101148.59;5107847;28;20046;-57
2022/08/13 11:13:48;;;;;;;9.40;2.70;;;;;;;29.82;26.60;101153.78;5100662;28;20040;-57
2022/08/13 11:19:14;;;;;;;7.30;2.97;;;;;;;29.78;27.25;101136.31;5104778;28;20048;-57
2022/08/13 11:21:43;;;;;;;10.90;2.40;;;;;;;30.04;25.97;101141.75;5097553;28;20459;-57
2022/08/13 11:24:10;;;;;;;10.75;2.60;;;;;;;30.23;24.73;101142.81;5059112;28;20067;-58
2022/08/13 11:26:38;;;;;;;14.38;2.55;;;;;;;30.00;24.54;101143.41;5092324;28;20051;-57
2022/08/13 11:29:07;;;;;;;12.45;2.65;;;;;;;29.81;25.18;101137.66;5090910;28;20070;-57
2022/08/13 11:31:35;;;;;;;8.32;2.75;;;;;;;29.90;25.47;101127.81;5093678;28;20067;-57
2022/08/13 11:34:02;;;;;;;12.68;2.60;;;;;;;29.99;25.06;101126.16;5088608;28;20040;-57
2022/08/13 11:36:30;;;;;;;8.88;2.63;;;;;;;30.15;23.83;101116.03;5094988;28;20442;-57
2022/08/13 11:38:56;;;;;;;9.60;2.80;;;;;;;30.62;24.06;101116.75;5092394;28;20040;-57
2022/08/13 11:41:24;;;;;;;11.13;2.85;;;;;;;30.96;25.90;101116.88;5086146;28;20044;-57
2022/08/13 11:43:51;;;;;;;8.35;2.47;;;;;;;31.28;24.26;101118.31;5085021;28;20409;-57
2022/08/13 11:46:20;;;;;;;7.18;2.42;;;;;;;31.47;24.08;101109.41;5094586;28;20059;-57
2022/08/13 11:48:47;;;;;;;5.25;2.42;;;;;;;31.75;23.65;101108.66;5106789;28;20036;-57
2022/08/13 11:51:14;;;;;;;10.88;2.53;;;;;;;31.77;24.03;101117.44;5102113;28;20043;-57